Time;durP1;ratioP1;P1;durP2;ratioP2;P2;SDS_P1;SDS_P2;PMS_P1;PMS_P2;Temp;Humidity;BMP_temperature;BMP_pressure;BME280_temperature;BME280_humidity;BME280_pressure;Samples;Min_cycle;Max_cycle;Signal;HPM_P1;HPM_P2
2023/01/13 00:00:02;;;;;;;1.1;1.1;;;;;;;8.5;100.0;100210;;;;
2023/01/13 00:01:10;;;;;;;1.1;1.1;;;;;;;8.4;100.0;100210;;;;
2023/01/13 00:02:00;;;;;;;1.1;1.1;;;;;;;8.4;100.0;100210;;;;
2023/01/13 00:03:00;;;;;;;1.1;1.1;;;;;;;8.4;100.0;100210;;;;
2023/01/13 00:04:00;;;;;;;1.1;1.1;;;;;;;8.4;100.0;100210;;;;
2023/01/13 00:05:00;;;;;;;1.1;1.1;;;;;;;8.4;100.0;100210;;;;
2023/01/13 00:06:00;;;;;;;1.1;1.1;;;;;;;8.4;100.0;100210;;;;
2023/01/13 00:07:00;;;;;;;1.1;1.1;;;;;;;8.4;100.0;100210;;;;
2023/01/13 00:08:03;;;;;;;1.1;1.1;;;;;;;8.4;100.0;100210;;;;
2023/01/13 00:09:00;;;;;;;1.1;1.1;;;;;;;8.3;100.0;100210;;;;
2023/01/13 00:10:00;;;;;;;1.1;1.1;;;;;;;8.3;100.0;100210;;;;
2023/01/13 00:11:00;;;;;;;1.1;1.1;;;;;;;8.3;100.0;100210;;;;
2023/01/13 00:12:00;;;;;;;1.1;1.1;;;;;;;8.3;100.0;100210;;;;
2023/01/13 00:13:02;;;;;;;1.1;1.1;;;;;;;8.3;100.0;100200;;;;
2023/01/13 00:14:00;;;;;;;1.1;1.1;;;;;;;8.3;100.0;100200;;;;
2023/01/13 00:15:00;;;;;;;1.1;1.1;;;;;;;8.3;100.0;100200;;;;
2023/01/13 00:16:00;;;;;;;1.1;1.1;;;;;;;8.3;100.0;100200;;;;
2023/01/13 00:17:01;;;;;;;1.1;1.1;;;;;;;8.2;100.0;100200;;;;
2023/01/13 00:18:00;;;;;;;1.1;1.1;;;;;;;8.2;100.0;100200;;;;
2023/01/13 00:19:00;;;;;;;2.0;1.9;;;;;;;8.2;100.0;100200;;;;
2023/01/13 00:20:00;;;;;;;2.0;1.9;;;;;;;8.2;100.0;100200;;;;
2023/01/13 00:21:02;;;;;;;2.0;1.9;;;;;;;8.2;100.0;100190;;;;
2023/01/13 00:22:00;;;;;;;2.0;1.9;;;;;;;8.2;100.0;100190;;;;
2023/01/13 00:23:00;;;;;;;2.0;1.9;;;;;;;8.1;100.0;100190;;;;
2023/01/13 00:24:00;;;;;;;2.0;1.9;;;;;;;8.1;100.0;100190;;;;
2023/01/13 00:25:01;;;;;;;2.0;1.9;;;;;;;8.1;100.0;100190;;;;
2023/01/13 00:26:01;;;;;;;2.0;1.9;;;;;;;8.1;100.0;100190;;;;
2023/01/13 00:27:00;;;;;;;2.0;1.9;;;;;;;8.1;100.0;100180;;;;
2023/01/13 00:28:00;;;;;;;2.0;1.9;;;;;;;8.1;100.0;100180;;;;
2023/01/13 00:29:01;;;;;;;2.0;1.9;;;;;;;8.1;100.0;100180;;;;
2023/01/13 00:30:00;;;;;;;2.0;1.9;;;;;;;8.1;100.0;100180;;;;
2023/01/13 00:31:05;;;;;;;2.0;1.9;;;;;;;8.1;100.0;100180;;;;
2023/01/13 00:32:00;;;;;;;2.0;1.9;;;;;;;8.1;100.0;100180;;;;
2023/01/13 00:33:00;;;;;;;2.0;1.9;;;;;;;8.0;100.0;100170;;;;
2023/01/13 00:34:01;;;;;;;2.0;1.9;;;;;;;8.0;100.0;100170;;;;
2023/01/13 00:35:00;;;;;;;2.0;1.9;;;;;;;8.0;100.0;100180;;;;
2023/01/13 00:36:01;;;;;;;2.0;1.9;;;;;;;8.0;100.0;100180;;;;
2023/01/13 00:37:00;;;;;;;2.0;1.9;;;;;;;7.9;100.0;100170;;;;
2023/01/13 00:38:00;;;;;;;2.0;1.9;;;;;;;7.9;100.0;100170;;;;
2023/01/13 00:39:00;;;;;;;1.2;1.2;;;;;;;7.9;100.0;100170;;;;
2023/01/13 00:40:00;;;;;;;1.2;1.2;;;;;;;7.9;100.0;100170;;;;
2023/01/13 00:41:03;;;;;;;1.2;1.2;;;;;;;7.9;100.0;100170;;;;
2023/01/13 00:44:00;;;;;;;1.2;1.2;;;;;;;7.8;100.0;100160;;;;
2023/01/13 00:45:01;;;;;;;1.2;1.2;;;;;;;7.8;100.0;100170;;;;
2023/01/13 00:46:01;;;;;;;1.2;1.2;;;;;;;7.8;100.0;100170;;;;
2023/01/13 00:47:00;;;;;;;1.2;1.2;;;;;;;7.8;100.0;100160;;;;
2023/01/13 00:48:00;;;;;;;1.2;1.2;;;;;;;7.8;100.0;100160;;;;
2023/01/13 00:49:00;;;;;;;1.2;1.2;;;;;;;7.8;100.0;100160;;;;
2023/01/13 00:50:00;;;;;;;1.2;1.2;;;;;;;7.8;100.0;100160;;;;
2023/01/13 00:51:02;;;;;;;1.2;1.2;;;;;;;7.8;100.0;100160;;;;
2023/01/13 00:52:00;;;;;;;1.2;1.2;;;;;;;7.8;100.0;100160;;;;
2023/01/13 00:53:00;;;;;;;1.2;1.2;;;;;;;7.7;100.0;100170;;;;
2023/01/13 00:54:00;;;;;;;1.2;1.2;;;;;;;7.7;100.0;100170;;;;
2023/01/13 00:55:00;;;;;;;1.2;1.2;;;;;;;7.7;100.0;100170;;;;
2023/01/13 00:56:01;;;;;;;1.2;1.2;;;;;;;7.7;100.0;100170;;;;
2023/01/13 00:57:00;;;;;;;1.2;1.2;;;;;;;7.6;100.0;100180;;;;
2023/01/13 00:58:02;;;;;;;1.2;1.2;;;;;;;7.6;100.0;100180;;;;
2023/01/13 00:59:01;;;;;;;1.4;1.4;;;;;;;7.6;100.0;100180;;;;
2023/01/13 01:00:00;;;;;;;1.4;1.4;;;;;;;7.6;100.0;100180;;;;
2023/01/13 01:01:01;;;;;;;1.4;1.4;;;;;;;7.6;100.0;100180;;;;
2023/01/13 01:02:00;;;;;;;1.4;1.4;;;;;;;7.6;100.0;100180;;;;
2023/01/13 01:03:00;;;;;;;1.4;1.4;;;;;;;7.6;100.0;100170;;;;
2023/01/13 01:04:00;;;;;;;1.4;1.4;;;;;;;7.6;100.0;100170;;;;
2023/01/13 01:05:00;;;;;;;1.4;1.4;;;;;;;7.6;100.0;100180;;;;
2023/01/13 01:06:05;;;;;;;1.4;1.4;;;;;;;7.6;100.0;100180;;;;
2023/01/13 01:07:00;;;;;;;1.4;1.4;;;;;;;7.6;100.0;100190;;;;
2023/01/13 01:08:00;;;;;;;1.4;1.4;;;;;;;7.6;100.0;100190;;;;
2023/01/13 01:09:00;;;;;;;1.4;1.4;;;;;;;7.6;100.0;100180;;;;
2023/01/13 01:10:00;;;;;;;1.4;1.4;;;;;;;7.6;100.0;100180;;;;
2023/01/13 01:11:01;;;;;;;1.4;1.4;;;;;;;7.5;100.0;100180;;;;
2023/01/13 01:12:00;;;;;;;1.4;1.4;;;;;;;7.5;100.0;100180;;;;
2023/01/13 01:13:00;;;;;;;1.4;1.4;;;;;;;7.6;100.0;100180;;;;
2023/01/13 01:14:01;;;;;;;1.4;1.4;;;;;;;7.6;100.0;100180;;;;
2023/01/13 01:15:00;;;;;;;1.4;1.4;;;;;;;7.6;100.0;100190;;;;
2023/01/13 01:16:03;;;;;;;1.4;1.4;;;;;;;7.6;100.0;100190;;;;
2023/01/13 01:17:00;;;;;;;1.4;1.4;;;;;;;7.6;100.0;100190;;;;
2023/01/13 01:18:00;;;;;;;1.4;1.4;;;;;;;7.6;100.0;100190;;;;
2023/01/13 01:19:00;;;;;;;1.3;1.3;;;;;;;7.6;100.0;100190;;;;
2023/01/13 01:20:00;;;;;;;1.3;1.3;;;;;;;7.6;100.0;100190;;;;
2023/01/13 01:21:00;;;;;;;1.3;1.3;;;;;;;7.6;100.0;100190;;;;
2023/01/13 01:22:00;;;;;;;1.3;1.3;;;;;;;7.6;100.0;100190;;;;
2023/01/13 01:23:00;;;;;;;1.3;1.3;;;;;;;7.6;100.0;100190;;;;
2023/01/13 01:24:01;;;;;;;1.3;1.3;;;;;;;7.6;100.0;100190;;;;
2023/01/13 01:25:00;;;;;;;1.3;1.3;;;;;;;7.6;100.0;100190;;;;
2023/01/13 01:26:01;;;;;;;1.3;1.3;;;;;;;7.6;100.0;100190;;;;
2023/01/13 01:27:00;;;;;;;1.3;1.3;;;;;;;7.6;100.0;100190;;;;
2023/01/13 01:28:00;;;;;;;1.3;1.3;;;;;;;7.6;100.0;100190;;;;
2023/01/13 01:29:01;;;;;;;1.3;1.3;;;;;;;7.7;100.0;100190;;;;
2023/01/13 01:30:00;;;;;;;1.3;1.3;;;;;;;7.7;100.0;100190;;;;
2023/01/13 01:31:05;;;;;;;1.3;1.3;;;;;;;7.7;100.0;100180;;;;
2023/01/13 01:32:00;;;;;;;1.3;1.3;;;;;;;7.7;100.0;100180;;;;
2023/01/13 01:33:02;;;;;;;1.3;1.3;;;;;;;7.7;100.0;100190;;;;
2023/01/13 01:34:01;;;;;;;1.3;1.3;;;;;;;7.7;100.0;100190;;;;
2023/01/13 01:35:00;;;;;;;1.3;1.3;;;;;;;7.7;100.0;100180;;;;
2023/01/13 01:36:01;;;;;;;1.3;1.3;;;;;;;7.7;100.0;100180;;;;
2023/01/13 01:37:00;;;;;;;1.3;1.3;;;;;;;7.7;100.0;100190;;;;
2023/01/13 01:38:00;;;;;;;1.3;1.3;;;;;;;7.7;100.0;100190;;;;
2023/01/13 01:39:00;;;;;;;1.2;1.2;;;;;;;7.7;100.0;100180;;;;
2023/01/13 01:40:00;;;;;;;1.2;1.2;;;;;;;7.7;100.0;100180;;;;
2023/01/13 01:41:00;;;;;;;1.2;1.2;;;;;;;7.6;100.0;100180;;;;
2023/01/13 01:44:05;;;;;;;1.2;1.2;;;;;;;7.6;100.0;100170;;;;
2023/01/13 01:45:02;;;;;;;1.2;1.2;;;;;;;7.6;100.0;100180;;;;
2023/01/13 01:46:00;;;;;;;1.2;1.2;;;;;;;7.6;100.0;100180;;;;
2023/01/13 01:47:00;;;;;;;1.2;1.2;;;;;;;7.5;100.0;100180;;;;
2023/01/13 01:48:03;;;;;;;1.2;1.2;;;;;;;7.5;100.0;100180;;;;
2023/01/13 01:49:04;;;;;;;1.2;1.2;;;;;;;7.6;100.0;100170;;;;
2023/01/13 01:50:01;;;;;;;1.2;1.2;;;;;;;7.6;100.0;100170;;;;
2023/01/13 01:51:01;;;;;;;1.2;1.2;;;;;;;7.5;100.0;100180;;;;
2023/01/13 01:52:03;;;;;;;1.2;1.2;;;;;;;7.5;100.0;100180;;;;
2023/01/13 01:53:10;;;;;;;1.2;1.2;;;;;;;7.5;100.0;100190;;;;
2023/01/13 01:54:02;;;;;;;1.2;1.2;;;;;;;7.5;100.0;100190;;;;
2023/01/13 01:55:04;;;;;;;1.2;1.2;;;;;;;7.4;100.0;100180;;;;
2023/01/13 01:56:00;;;;;;;1.2;1.2;;;;;;;7.4;100.0;100180;;;;
2023/01/13 01:57:00;;;;;;;1.2;1.2;;;;;;;7.5;100.0;100180;;;;
2023/01/13 01:58:03;;;;;;;1.2;1.2;;;;;;;7.5;100.0;100180;;;;
2023/01/13 01:59:00;;;;;;;1.3;1.3;;;;;;;7.6;100.0;100180;;;;
2023/01/13 02:00:00;;;;;;;1.3;1.3;;;;;;;7.6;100.0;100180;;;;
2023/01/13 02:01:00;;;;;;;1.3;1.3;;;;;;;7.4;100.0;100170;;;;
2023/01/13 02:02:01;;;;;;;1.3;1.3;;;;;;;7.4;100.0;100170;;;;
2023/01/13 02:03:02;;;;;;;1.3;1.3;;;;;;;7.4;100.0;100180;;;;
2023/01/13 02:04:04;;;;;;;1.3;1.3;;;;;;;7.4;100.0;100180;;;;
2023/01/13 02:05:01;;;;;;;1.3;1.3;;;;;;;7.4;100.0;100180;;;;
2023/01/13 02:06:00;;;;;;;1.3;1.3;;;;;;;7.4;100.0;100180;;;;
2023/01/13 02:07:01;;;;;;;1.3;1.3;;;;;;;7.5;100.0;100180;;;;
2023/01/13 02:08:01;;;;;;;1.3;1.3;;;;;;;7.5;100.0;100180;;;;
2023/01/13 02:09:00;;;;;;;1.3;1.3;;;;;;;7.4;100.0;100170;;;;
2023/01/13 02:10:02;;;;;;;1.3;1.3;;;;;;;7.4;100.0;100170;;;;
2023/01/13 02:11:00;;;;;;;1.3;1.3;;;;;;;7.4;100.0;100170;;;;
2023/01/13 02:13:03;;;;;;;1.3;1.3;;;;;;;7.4;100.0;100170;;;;
2023/01/13 02:14:00;;;;;;;1.3;1.3;;;;;;;7.4;100.0;100170;;;;
2023/01/13 02:15:01;;;;;;;1.3;1.3;;;;;;;7.3;100.0;100170;;;;
2023/01/13 02:16:07;;;;;;;1.3;1.3;;;;;;;7.3;100.0;100170;;;;
2023/01/13 02:17:00;;;;;;;1.3;1.3;;;;;;;7.3;100.0;100170;;;;
2023/01/13 02:18:01;;;;;;;1.3;1.3;;;;;;;7.3;100.0;100170;;;;
2023/01/13 02:19:08;;;;;;;1.4;1.4;;;;;;;7.3;100.0;100160;;;;
2023/01/13 02:20:10;;;;;;;1.4;1.4;;;;;;;7.3;100.0;100160;;;;
2023/01/13 02:21:10;;;;;;;1.4;1.4;;;;;;;7.3;100.0;100170;;;;
2023/01/13 02:22:01;;;;;;;1.4;1.4;;;;;;;7.3;100.0;100170;;;;
2023/01/13 02:24:52;;;;;;;1.4;1.4;;;;;;;7.3;100.0;100160;;;;
2023/01/13 02:25:11;;;;;;;1.4;1.4;;;;;;;7.2;100.0;100160;;;;
2023/01/13 02:26:08;;;;;;;1.4;1.4;;;;;;;7.2;100.0;100160;;;;
2023/01/13 02:27:01;;;;;;;1.4;1.4;;;;;;;7.2;100.0;100160;;;;
2023/01/13 02:28:10;;;;;;;1.4;1.4;;;;;;;7.2;100.0;100160;;;;
2023/01/13 02:32:07;;;;;;;1.4;1.4;;;;;;;7.2;100.0;100170;;;;
2023/01/13 02:33:10;;;;;;;1.4;1.4;;;;;;;7.2;100.0;100170;;;;
2023/01/13 02:34:00;;;;;;;1.4;1.4;;;;;;;7.2;100.0;100170;;;;
2023/01/13 02:35:10;;;;;;;1.4;1.4;;;;;;;7.1;100.0;100180;;;;
2023/01/13 02:36:04;;;;;;;1.4;1.4;;;;;;;7.1;100.0;100180;;;;
2023/01/13 02:37:06;;;;;;;1.4;1.4;;;;;;;7.1;100.0;100190;;;;
2023/01/13 02:38:01;;;;;;;1.4;1.4;;;;;;;7.1;100.0;100190;;;;
2023/01/13 02:39:04;;;;;;;1.2;1.2;;;;;;;7.0;100.0;100180;;;;
2023/01/13 02:40:02;;;;;;;1.2;1.2;;;;;;;7.0;100.0;100180;;;;
2023/01/13 02:44:05;;;;;;;1.2;1.2;;;;;;;7.1;100.0;100180;;;;
2023/01/13 02:44:05;;;;;;;1.2;1.2;;;;;;;7.0;100.0;100190;;;;
2023/01/13 02:45:08;;;;;;;1.2;1.2;;;;;;;7.1;100.0;100180;;;;
2023/01/13 02:46:04;;;;;;;1.2;1.2;;;;;;;7.1;100.0;100180;;;;
2023/01/13 02:47:05;;;;;;;1.2;1.2;;;;;;;7.0;100.0;100190;;;;
2023/01/13 02:48:03;;;;;;;1.2;1.2;;;;;;;7.0;100.0;100190;;;;
2023/01/13 02:49:03;;;;;;;1.2;1.2;;;;;;;7.0;100.0;100180;;;;
2023/01/13 02:50:02;;;;;;;1.2;1.2;;;;;;;7.0;100.0;100180;;;;
2023/01/13 02:51:04;;;;;;;1.2;1.2;;;;;;;6.9;100.0;100170;;;;
2023/01/13 02:52:05;;;;;;;1.2;1.2;;;;;;;6.9;100.0;100170;;;;
2023/01/13 02:53:04;;;;;;;1.2;1.2;;;;;;;6.9;100.0;100170;;;;
2023/01/13 02:54:03;;;;;;;1.2;1.2;;;;;;;6.9;100.0;100170;;;;
2023/01/13 02:55:05;;;;;;;1.2;1.2;;;;;;;6.9;100.0;100160;;;;
2023/01/13 02:56:02;;;;;;;1.2;1.2;;;;;;;6.9;100.0;100160;;;;
2023/01/13 02:57:01;;;;;;;1.2;1.2;;;;;;;7.0;100.0;100150;;;;
2023/01/13 02:58:03;;;;;;;1.9;1.9;;;;;;;7.0;100.0;100150;;;;
2023/01/13 02:59:00;;;;;;;1.9;1.9;;;;;;;7.0;100.0;100150;;;;
2023/01/13 03:00:01;;;;;;;1.9;1.9;;;;;;;7.0;100.0;100150;;;;
2023/01/13 03:01:00;;;;;;;1.9;1.9;;;;;;;7.0;100.0;100150;;;;
2023/01/13 03:02:02;;;;;;;1.9;1.9;;;;;;;7.0;100.0;100150;;;;
2023/01/13 03:03:01;;;;;;;1.9;1.9;;;;;;;7.0;100.0;100160;;;;
2023/01/13 03:04:10;;;;;;;1.9;1.9;;;;;;;7.0;100.0;100160;;;;
2023/01/13 03:05:00;;;;;;;1.9;1.9;;;;;;;7.1;100.0;100160;;;;
2023/01/13 03:06:10;;;;;;;1.9;1.9;;;;;;;7.1;100.0;100160;;;;
2023/01/13 03:07:08;;;;;;;1.9;1.9;;;;;;;7.0;100.0;100150;;;;
2023/01/13 03:08:08;;;;;;;1.9;1.9;;;;;;;7.0;100.0;100150;;;;
2023/01/13 03:09:03;;;;;;;1.9;1.9;;;;;;;7.1;100.0;100150;;;;
2023/01/13 03:10:07;;;;;;;1.9;1.9;;;;;;;7.1;100.0;100150;;;;
2023/01/13 03:11:04;;;;;;;1.9;1.9;;;;;;;7.1;100.0;100140;;;;
2023/01/13 03:12:10;;;;;;;1.9;1.9;;;;;;;7.1;100.0;100140;;;;
2023/01/13 03:13:10;;;;;;;1.9;1.9;;;;;;;7.0;100.0;100140;;;;
2023/01/13 03:14:07;;;;;;;1.9;1.9;;;;;;;7.0;100.0;100140;;;;
2023/01/13 03:15:08;;;;;;;1.9;1.9;;;;;;;7.1;100.0;100150;;;;
2023/01/13 03:16:07;;;;;;;1.9;1.9;;;;;;;7.1;100.0;100150;;;;
2023/01/13 03:17:08;;;;;;;1.9;1.9;;;;;;;7.1;100.0;100140;;;;
2023/01/13 03:18:10;;;;;;;1.3;1.3;;;;;;;7.1;100.0;100140;;;;
2023/01/13 03:19:10;;;;;;;1.3;1.3;;;;;;;7.0;100.0;100140;;;;
2023/01/13 03:20:00;;;;;;;1.3;1.3;;;;;;;7.0;100.0;100140;;;;
2023/01/13 03:21:10;;;;;;;1.3;1.3;;;;;;;7.1;100.0;100130;;;;
2023/01/13 03:22:07;;;;;;;1.3;1.3;;;;;;;7.1;100.0;100130;;;;
2023/01/13 03:23:10;;;;;;;1.3;1.3;;;;;;;7.0;100.0;100120;;;;
2023/01/13 03:24:03;;;;;;;1.3;1.3;;;;;;;7.0;100.0;100120;;;;
2023/01/13 03:25:06;;;;;;;1.3;1.3;;;;;;;7.1;100.0;100120;;;;
2023/01/13 03:26:04;;;;;;;1.3;1.3;;;;;;;7.1;100.0;100120;;;;
2023/01/13 03:27:10;;;;;;;1.3;1.3;;;;;;;7.1;100.0;100110;;;;
2023/01/13 03:28:05;;;;;;;1.3;1.3;;;;;;;7.1;100.0;100110;;;;
2023/01/13 03:29:06;;;;;;;1.3;1.3;;;;;;;7.1;100.0;100110;;;;
2023/01/13 03:30:07;;;;;;;1.3;1.3;;;;;;;7.1;100.0;100110;;;;
2023/01/13 03:31:05;;;;;;;1.3;1.3;;;;;;;7.2;100.0;100120;;;;
2023/01/13 03:32:04;;;;;;;1.3;1.3;;;;;;;7.2;100.0;100120;;;;
2023/01/13 03:33:04;;;;;;;1.3;1.3;;;;;;;7.2;100.0;100120;;;;
2023/01/13 03:34:04;;;;;;;1.3;1.3;;;;;;;7.2;100.0;100120;;;;
2023/01/13 03:35:08;;;;;;;1.3;1.3;;;;;;;7.2;100.0;100100;;;;
2023/01/13 03:36:04;;;;;;;1.3;1.3;;;;;;;7.2;100.0;100100;;;;
2023/01/13 03:37:02;;;;;;;1.3;1.3;;;;;;;7.2;100.0;100100;;;;
2023/01/13 03:38:04;;;;;;;1.3;1.3;;;;;;;7.2;100.0;100100;;;;
2023/01/13 03:39:06;;;;;;;1.3;1.3;;;;;;;7.2;100.0;100100;;;;
2023/01/13 03:40:06;;;;;;;1.3;1.3;;;;;;;7.2;100.0;100100;;;;
2023/01/13 03:41:03;;;;;;;1.3;1.3;;;;;;;7.2;100.0;100110;;;;
2023/01/13 03:42:03;;;;;;;1.3;1.3;;;;;;;7.2;100.0;100110;;;;
2023/01/13 03:45:08;;;;;;;1.3;1.3;;;;;;;7.2;100.0;100100;;;;
2023/01/13 03:46:03;;;;;;;1.3;1.3;;;;;;;7.2;100.0;100100;;;;
2023/01/13 03:47:03;;;;;;;1.3;1.3;;;;;;;7.2;100.0;100110;;;;
2023/01/13 03:48:03;;;;;;;1.3;1.3;;;;;;;7.2;100.0;100110;;;;
2023/01/13 03:49:02;;;;;;;1.3;1.3;;;;;;;7.1;100.0;100100;;;;
2023/01/13 03:50:04;;;;;;;1.3;1.3;;;;;;;7.1;100.0;100100;;;;
2023/01/13 03:51:05;;;;;;;1.3;1.3;;;;;;;7.1;100.0;100100;;;;
2023/01/13 03:52:03;;;;;;;1.3;1.3;;;;;;;7.1;100.0;100100;;;;
2023/01/13 03:53:05;;;;;;;1.3;1.3;;;;;;;7.1;100.0;100080;;;;
2023/01/13 03:54:06;;;;;;;1.3;1.3;;;;;;;7.1;100.0;100080;;;;
2023/01/13 03:55:03;;;;;;;1.3;1.3;;;;;;;7.1;100.0;100100;;;;
2023/01/13 03:56:03;;;;;;;1.3;1.3;;;;;;;7.1;100.0;100100;;;;
2023/01/13 03:57:03;;;;;;;1.3;1.3;;;;;;;7.1;100.0;100080;;;;
2023/01/13 03:58:05;;;;;;;1.4;1.4;;;;;;;7.1;100.0;100080;;;;
2023/01/13 03:59:03;;;;;;;1.4;1.4;;;;;;;7.0;100.0;100090;;;;
2023/01/13 04:00:02;;;;;;;1.4;1.4;;;;;;;7.0;100.0;100090;;;;
2023/01/13 04:01:04;;;;;;;1.4;1.4;;;;;;;7.1;100.0;100090;;;;
2023/01/13 04:02:03;;;;;;;1.4;1.4;;;;;;;7.1;100.0;100090;;;;
2023/01/13 04:03:04;;;;;;;1.4;1.4;;;;;;;7.1;100.0;100100;;;;
2023/01/13 04:04:04;;;;;;;1.4;1.4;;;;;;;7.1;100.0;100100;;;;
2023/01/13 04:05:02;;;;;;;1.4;1.4;;;;;;;7.0;100.0;100090;;;;
2023/01/13 04:06:10;;;;;;;1.4;1.4;;;;;;;7.0;100.0;100090;;;;
2023/01/13 04:07:10;;;;;;;1.4;1.4;;;;;;;7.1;100.0;100100;;;;
2023/01/13 04:08:06;;;;;;;1.4;1.4;;;;;;;7.1;100.0;100100;;;;
2023/01/13 04:09:05;;;;;;;1.4;1.4;;;;;;;7.0;100.0;100100;;;;
2023/01/13 04:10:02;;;;;;;1.4;1.4;;;;;;;7.0;100.0;100100;;;;
2023/01/13 04:11:04;;;;;;;1.4;1.4;;;;;;;6.9;100.0;100120;;;;
2023/01/13 04:12:06;;;;;;;1.4;1.4;;;;;;;6.9;100.0;100120;;;;
2023/01/13 04:13:04;;;;;;;1.4;1.4;;;;;;;7.0;100.0;100120;;;;
2023/01/13 04:14:02;;;;;;;1.4;1.4;;;;;;;7.0;100.0;100120;;;;
2023/01/13 04:15:00;;;;;;;1.4;1.4;;;;;;;7.0;100.0;100110;;;;
2023/01/13 04:16:00;;;;;;;1.4;1.4;;;;;;;7.0;100.0;100110;;;;
2023/01/13 04:17:00;;;;;;;1.4;1.4;;;;;;;7.0;100.0;100130;;;;
2023/01/13 04:18:01;;;;;;;1.2;1.2;;;;;;;7.0;100.0;100130;;;;
2023/01/13 04:19:00;;;;;;;1.2;1.2;;;;;;;7.0;100.0;100130;;;;
2023/01/13 04:20:00;;;;;;;1.2;1.2;;;;;;;7.0;100.0;100130;;;;
2023/01/13 04:21:00;;;;;;;1.2;1.2;;;;;;;6.9;100.0;100130;;;;
2023/01/13 04:22:00;;;;;;;1.2;1.2;;;;;;;6.9;100.0;100130;;;;
2023/01/13 04:23:00;;;;;;;1.2;1.2;;;;;;;6.8;100.0;100130;;;;
2023/01/13 04:24:00;;;;;;;1.2;1.2;;;;;;;6.8;100.0;100130;;;;
2023/01/13 04:25:00;;;;;;;1.2;1.2;;;;;;;6.8;100.0;100140;;;;
2023/01/13 04:26:00;;;;;;;1.2;1.2;;;;;;;6.8;100.0;100140;;;;
2023/01/13 04:27:00;;;;;;;1.2;1.2;;;;;;;6.8;100.0;100140;;;;
2023/01/13 04:28:00;;;;;;;1.2;1.2;;;;;;;6.8;100.0;100140;;;;
2023/01/13 04:29:00;;;;;;;1.2;1.2;;;;;;;6.9;100.0;100150;;;;
2023/01/13 04:30:00;;;;;;;1.2;1.2;;;;;;;6.9;100.0;100150;;;;
2023/01/13 04:31:01;;;;;;;1.2;1.2;;;;;;;6.9;100.0;100150;;;;
2023/01/13 04:32:00;;;;;;;1.2;1.2;;;;;;;6.9;100.0;100150;;;;
2023/01/13 04:33:00;;;;;;;1.2;1.2;;;;;;;6.9;100.0;100140;;;;
2023/01/13 04:34:00;;;;;;;1.2;1.2;;;;;;;6.9;100.0;100140;;;;
2023/01/13 04:35:00;;;;;;;1.2;1.2;;;;;;;6.8;100.0;100150;;;;
2023/01/13 04:36:00;;;;;;;1.2;1.2;;;;;;;6.8;100.0;100150;;;;
2023/01/13 04:37:00;;;;;;;1.2;1.2;;;;;;;6.8;100.0;100140;;;;
2023/01/13 04:38:01;;;;;;;1.4;1.4;;;;;;;6.8;100.0;100140;;;;
2023/01/13 04:39:01;;;;;;;1.4;1.4;;;;;;;6.8;100.0;100140;;;;
2023/01/13 04:40:00;;;;;;;1.4;1.4;;;;;;;6.8;100.0;100140;;;;
2023/01/13 04:41:00;;;;;;;1.4;1.4;;;;;;;6.8;100.0;100150;;;;
2023/01/13 04:42:01;;;;;;;1.4;1.4;;;;;;;6.8;100.0;100150;;;;
2023/01/13 04:43:00;;;;;;;1.4;1.4;;;;;;;6.8;100.0;100160;;;;
2023/01/13 04:44:00;;;;;;;1.4;1.4;;;;;;;6.8;100.0;100160;;;;
2023/01/13 04:45:00;;;;;;;1.4;1.4;;;;;;;6.8;100.0;100150;;;;
2023/01/13 04:46:00;;;;;;;1.4;1.4;;;;;;;6.8;100.0;100150;;;;
2023/01/13 04:47:01;;;;;;;1.4;1.4;;;;;;;6.9;100.0;100160;;;;
2023/01/13 04:48:01;;;;;;;1.4;1.4;;;;;;;6.9;100.0;100160;;;;
2023/01/13 04:49:00;;;;;;;1.4;1.4;;;;;;;6.9;100.0;100150;;;;
2023/01/13 04:50:00;;;;;;;1.4;1.4;;;;;;;6.9;100.0;100150;;;;
2023/01/13 04:51:00;;;;;;;1.4;1.4;;;;;;;6.9;100.0;100160;;;;
2023/01/13 04:52:02;;;;;;;1.4;1.4;;;;;;;6.9;100.0;100160;;;;
2023/01/13 04:53:00;;;;;;;1.4;1.4;;;;;;;6.9;100.0;100150;;;;
2023/01/13 04:54:00;;;;;;;1.4;1.4;;;;;;;6.9;100.0;100150;;;;
2023/01/13 04:55:00;;;;;;;1.4;1.4;;;;;;;6.9;100.0;100150;;;;
2023/01/13 04:56:00;;;;;;;1.4;1.4;;;;;;;6.9;100.0;100150;;;;
2023/01/13 04:57:00;;;;;;;1.4;1.4;;;;;;;6.9;100.0;100140;;;;
2023/01/13 04:58:01;;;;;;;1.4;1.4;;;;;;;6.9;100.0;100140;;;;
2023/01/13 04:59:00;;;;;;;1.4;1.4;;;;;;;7.0;100.0;100130;;;;
2023/01/13 05:00:00;;;;;;;1.4;1.4;;;;;;;7.0;100.0;100130;;;;
2023/01/13 05:01:00;;;;;;;1.4;1.4;;;;;;;7.0;100.0;100120;;;;
2023/01/13 05:02:00;;;;;;;1.4;1.4;;;;;;;7.0;100.0;100120;;;;
2023/01/13 05:03:01;;;;;;;1.4;1.4;;;;;;;6.9;100.0;100120;;;;
2023/01/13 05:04:00;;;;;;;1.4;1.4;;;;;;;6.9;100.0;100120;;;;
2023/01/13 05:05:00;;;;;;;1.4;1.4;;;;;;;7.0;100.0;100130;;;;
2023/01/13 05:06:00;;;;;;;1.4;1.4;;;;;;;7.0;100.0;100130;;;;
2023/01/13 05:07:00;;;;;;;1.4;1.4;;;;;;;6.9;100.0;100130;;;;
2023/01/13 05:08:00;;;;;;;1.4;1.4;;;;;;;6.9;100.0;100130;;;;
2023/01/13 05:09:00;;;;;;;1.4;1.4;;;;;;;7.0;100.0;100130;;;;
2023/01/13 05:10:00;;;;;;;1.4;1.4;;;;;;;7.0;100.0;100130;;;;
2023/01/13 05:16:58;;;;;;;1.4;1.4;;;;;;;6.9;100.0;100130;;;;
2023/01/13 05:17:00;;;;;;;1.4;1.4;;;;;;;6.9;100.0;100130;;;;
2023/01/13 05:18:00;;;;;;;1.3;1.3;;;;;;;6.9;100.0;100130;;;;
2023/01/13 05:19:00;;;;;;;1.3;1.3;;;;;;;6.9;100.0;100130;;;;
2023/01/13 05:20:00;;;;;;;1.3;1.3;;;;;;;6.9;100.0;100130;;;;
2023/01/13 05:21:00;;;;;;;1.3;1.3;;;;;;;6.8;100.0;100130;;;;
2023/01/13 05:26:00;;;;;;;1.3;1.3;;;;;;;6.8;100.0;100130;;;;
2023/01/13 05:27:00;;;;;;;1.3;1.3;;;;;;;6.8;100.0;100130;;;;
2023/01/13 05:28:00;;;;;;;1.3;1.3;;;;;;;6.8;100.0;100130;;;;
2023/01/13 05:29:00;;;;;;;1.3;1.3;;;;;;;6.7;100.0;100140;;;;
2023/01/13 05:30:00;;;;;;;1.3;1.3;;;;;;;6.7;100.0;100140;;;;
2023/01/13 05:31:00;;;;;;;1.3;1.3;;;;;;;6.7;100.0;100140;;;;
2023/01/13 05:32:01;;;;;;;1.3;1.3;;;;;;;6.7;100.0;100140;;;;
2023/01/13 05:33:00;;;;;;;1.3;1.3;;;;;;;6.7;100.0;100140;;;;
2023/01/13 05:34:00;;;;;;;1.3;1.3;;;;;;;6.7;100.0;100140;;;;
2023/01/13 05:35:00;;;;;;;1.3;1.3;;;;;;;6.8;100.0;100140;;;;
2023/01/13 05:36:01;;;;;;;1.3;1.3;;;;;;;6.8;100.0;100140;;;;
2023/01/13 05:37:00;;;;;;;1.3;1.3;;;;;;;6.8;100.0;100130;;;;
2023/01/13 05:38:00;;;;;;;1.3;1.3;;;;;;;6.8;100.0;100130;;;;
2023/01/13 05:39:00;;;;;;;1.3;1.3;;;;;;;6.8;100.0;100140;;;;
2023/01/13 05:44:00;;;;;;;1.3;1.3;;;;;;;6.8;100.0;100150;;;;
2023/01/13 05:45:00;;;;;;;1.3;1.3;;;;;;;6.8;100.0;100150;;;;
2023/01/13 05:46:02;;;;;;;1.3;1.3;;;;;;;6.8;100.0;100150;;;;
2023/01/13 05:47:00;;;;;;;1.3;1.3;;;;;;;6.7;100.0;100150;;;;
2023/01/13 05:48:00;;;;;;;1.3;1.3;;;;;;;6.7;100.0;100150;;;;
2023/01/13 05:49:00;;;;;;;1.3;1.3;;;;;;;6.7;100.0;100160;;;;
2023/01/13 05:50:00;;;;;;;1.3;1.3;;;;;;;6.7;100.0;100160;;;;
2023/01/13 05:51:01;;;;;;;1.3;1.3;;;;;;;6.7;100.0;100160;;;;
2023/01/13 05:52:00;;;;;;;1.3;1.3;;;;;;;6.7;100.0;100160;;;;
2023/01/13 05:53:00;;;;;;;1.3;1.3;;;;;;;6.9;100.0;100170;;;;
2023/01/13 05:54:00;;;;;;;1.3;1.3;;;;;;;6.9;100.0;100170;;;;
2023/01/13 05:55:00;;;;;;;1.3;1.3;;;;;;;6.8;100.0;100170;;;;
2023/01/13 05:56:03;;;;;;;1.3;1.3;;;;;;;6.8;100.0;100170;;;;
2023/01/13 05:57:00;;;;;;;1.3;1.3;;;;;;;6.8;100.0;100170;;;;
2023/01/13 05:58:00;;;;;;;1.3;1.3;;;;;;;6.8;100.0;100170;;;;
2023/01/13 05:59:00;;;;;;;1.3;1.3;;;;;;;6.7;100.0;100170;;;;
2023/01/13 06:00:00;;;;;;;1.3;1.3;;;;;;;6.7;100.0;100170;;;;
2023/01/13 06:01:02;;;;;;;1.3;1.3;;;;;;;6.8;100.0;100180;;;;
2023/01/13 06:02:00;;;;;;;1.3;1.3;;;;;;;6.8;100.0;100180;;;;
2023/01/13 06:03:00;;;;;;;1.3;1.3;;;;;;;6.8;100.0;100180;;;;
2023/01/13 06:04:00;;;;;;;1.3;1.3;;;;;;;6.8;100.0;100180;;;;
2023/01/13 06:05:00;;;;;;;1.3;1.3;;;;;;;6.8;100.0;100180;;;;
2023/01/13 06:06:02;;;;;;;1.3;1.3;;;;;;;6.8;100.0;100180;;;;
2023/01/13 06:07:00;;;;;;;1.3;1.3;;;;;;;6.8;100.0;100170;;;;
2023/01/13 06:08:01;;;;;;;1.3;1.3;;;;;;;6.8;100.0;100170;;;;
2023/01/13 06:09:00;;;;;;;1.3;1.3;;;;;;;6.8;100.0;100180;;;;
2023/01/13 06:10:00;;;;;;;1.3;1.3;;;;;;;6.8;100.0;100180;;;;
2023/01/13 06:11:00;;;;;;;1.3;1.3;;;;;;;6.7;100.0;100170;;;;
2023/01/13 06:12:00;;;;;;;1.3;1.3;;;;;;;6.7;100.0;100170;;;;
2023/01/13 06:13:00;;;;;;;1.3;1.3;;;;;;;6.7;100.0;100180;;;;
2023/01/13 06:14:00;;;;;;;1.3;1.3;;;;;;;6.7;100.0;100180;;;;
2023/01/13 06:15:00;;;;;;;1.3;1.3;;;;;;;6.7;100.0;100170;;;;
2023/01/13 06:16:00;;;;;;;1.3;1.3;;;;;;;6.7;100.0;100170;;;;
2023/01/13 06:17:00;;;;;;;1.3;1.3;;;;;;;6.6;100.0;100170;;;;
2023/01/13 06:18:01;;;;;;;1.4;1.4;;;;;;;6.6;100.0;100170;;;;
2023/01/13 06:19:00;;;;;;;1.4;1.4;;;;;;;6.6;100.0;100170;;;;
2023/01/13 06:20:00;;;;;;;1.4;1.4;;;;;;;6.6;100.0;100170;;;;
2023/01/13 06:21:00;;;;;;;1.4;1.4;;;;;;;6.6;100.0;100170;;;;
2023/01/13 06:22:10;;;;;;;1.4;1.4;;;;;;;6.6;100.0;100170;;;;
2023/01/13 06:23:00;;;;;;;1.4;1.4;;;;;;;6.6;100.0;100180;;;;
2023/01/13 06:24:00;;;;;;;1.4;1.4;;;;;;;6.6;100.0;100180;;;;
2023/01/13 06:25:01;;;;;;;1.4;1.4;;;;;;;6.6;100.0;100180;;;;
2023/01/13 06:26:04;;;;;;;1.4;1.4;;;;;;;6.6;100.0;100180;;;;
2023/01/13 06:27:00;;;;;;;1.4;1.4;;;;;;;6.6;100.0;100180;;;;
2023/01/13 06:28:00;;;;;;;1.4;1.4;;;;;;;6.6;100.0;100180;;;;
2023/01/13 06:29:00;;;;;;;1.4;1.4;;;;;;;6.6;100.0;100180;;;;
2023/01/13 06:30:00;;;;;;;1.4;1.4;;;;;;;6.6;100.0;100180;;;;
2023/01/13 06:31:03;;;;;;;1.4;1.4;;;;;;;6.6;100.0;100180;;;;
2023/01/13 06:32:02;;;;;;;1.4;1.4;;;;;;;6.6;100.0;100180;;;;
2023/01/13 06:33:02;;;;;;;1.4;1.4;;;;;;;6.6;100.0;100180;;;;
2023/01/13 06:34:03;;;;;;;1.4;1.4;;;;;;;6.6;100.0;100180;;;;
2023/01/13 06:35:05;;;;;;;1.4;1.4;;;;;;;6.4;100.0;100180;;;;
2023/01/13 06:36:03;;;;;;;1.4;1.4;;;;;;;6.4;100.0;100180;;;;
2023/01/13 06:37:01;;;;;;;1.4;1.4;;;;;;;6.4;100.0;100180;;;;
2023/01/13 06:38:02;;;;;;;1.3;1.3;;;;;;;6.4;100.0;100180;;;;
2023/01/13 06:39:01;;;;;;;1.3;1.3;;;;;;;6.4;100.0;100170;;;;
2023/01/13 06:40:01;;;;;;;1.3;1.3;;;;;;;6.4;100.0;100170;;;;
2023/01/13 06:41:00;;;;;;;1.3;1.3;;;;;;;6.4;100.0;100180;;;;
2023/01/13 06:44:00;;;;;;;1.3;1.3;;;;;;;6.4;100.0;100180;;;;
2023/01/13 06:45:00;;;;;;;1.3;1.3;;;;;;;6.4;100.0;100190;;;;
2023/01/13 06:46:01;;;;;;;1.3;1.3;;;;;;;6.4;100.0;100190;;;;
2023/01/13 06:47:00;;;;;;;1.3;1.3;;;;;;;6.4;100.0;100190;;;;
2023/01/13 06:48:00;;;;;;;1.3;1.3;;;;;;;6.4;100.0;100190;;;;
2023/01/13 06:49:00;;;;;;;1.3;1.3;;;;;;;6.4;100.0;100180;;;;
2023/01/13 06:50:00;;;;;;;1.3;1.3;;;;;;;6.4;100.0;100180;;;;
2023/01/13 06:51:01;;;;;;;1.3;1.3;;;;;;;6.4;100.0;100190;;;;
2023/01/13 06:52:00;;;;;;;1.3;1.3;;;;;;;6.4;100.0;100190;;;;
2023/01/13 06:53:00;;;;;;;1.3;1.3;;;;;;;6.4;100.0;100190;;;;
2023/01/13 06:54:00;;;;;;;1.3;1.3;;;;;;;6.4;100.0;100190;;;;
2023/01/13 06:55:00;;;;;;;1.3;1.3;;;;;;;6.3;100.0;100180;;;;
2023/01/13 06:56:00;;;;;;;1.3;1.3;;;;;;;6.3;100.0;100180;;;;
2023/01/13 06:57:00;;;;;;;1.3;1.3;;;;;;;6.4;100.0;100180;;;;